To NAV CANADA Home Page Login to a new session Search on AWWS site Feedback and Comments Disclaimer Vers la page française équivalente Tips FAQ What's new on the site To the Forecasts and Observations / NOTAM section To "File a Flight Plan" website Publications and other links Update of the User's profile FIC Telephone Numbers My Weather Data Folder Route Weather Data Regional Weather Data Local Weather Data To the Forecasts and Observations / NOTAM section
Request Generated 02/09/2016 at 17:39:14 UTC . Weather information available at that time is displayed.

METAR/TAF

THOMPSON/MB    

METAR CYTH 091700Z 35002KT 15SM SKC M29/M33 A3043 RMK SLP341 DENSITY
ALT MISG=
METAR CYTH 091600Z 36003KT 15SM FEW200 M32/M35 A3043 RMK CI1 SLP343
DENSITY ALT MISG=
METAR CYTH 091500Z 00000KT 15SM SKC M34/M37 A3043 RMK SLP344 DENSITY
ALT MISG=

TAF CYTH 091238Z 0913/1001 VRB03KT P6SM SKC
RMK NXT FCST BY 091900Z=
Your time UTC time
Weather data provided by Environment Canada and NAV CANADA